Snow/Ice From: 16-12-2017 16:00 Until: 17-12-2017 16:00 warning for: Snow/Ice Level: Yellow info button

Although rather usual in this region, locally or potentially dangerous phenomena are expected. (such as local winds, summer thunderstorms, rising streams or high waves) Be aware and pay attention to the latest weather updates, especially if you carry out activities exposed to weather or close to a stream or shoreline. 


Meteo18 Weather Cam more information Meteo18 Weather Cam


Thunder radar more information blitzortung!


warning for Snow/Ice more information rain snow radar


Visit our other weather sites:

Template documentation
and downloads

And another site



Weather Underground History page Text

Daily Summary for December 7, 2017 Units:  Metric    English   Both
« Previous Day
Next Day »
Daily Weekly Monthly Yearly Custom
  High: Low: Average:
Temperature: 6.9 °C -2.2 °C 2.1 °C
Dew Point: 6.5 °C -2.6 °C 1.3 °C
Humidity: 98 % 86 % 95 %
Wind Speed: 27.4 km/h 0.0 km/h 9.5 km/h
Wind Gust: 37.0 km/h - -
Wind:- - SSW
Pressure: 1029.7 hPa 1016.1 hPa -
Precipitation: 7.9 mm    
Historical Graphs
 
 
Tabular Data for December 7, 2017
Time Temperature Dew Point Pressure Wind Wind Speed Wind Gust Humidity Rainfall Rate (Hourly)
00:02 0.9 °C 0.3 °C 1029.7 hPa SSE 1.6 km/h 8.0 km/h 96 % 0.0 mm
00:07 0.9 °C 0.2 °C 1029.7 hPa SSE 1.6 km/h 8.0 km/h 95 % 0.0 mm
00:12 0.9 °C 0.2 °C 1029.7 hPa SSE 1.6 km/h 9.7 km/h 95 % 0.0 mm
00:17 0.9 °C 0.3 °C 1029.7 hPa Calm   9.7 km/h 96 % 0.0 mm
00:22 0.8 °C 0.2 °C 1029.7 hPa SE 1.6 km/h 11.3 km/h 96 % 0.0 mm
00:27 0.8 °C 0.2 °C 1029.7 hPa Calm   11.3 km/h 96 % 0.0 mm
00:32 0.8 °C 0.2 °C 1029.3 hPa SSE 1.6 km/h 6.4 km/h 96 % 0.0 mm
00:42 0.8 °C 0.2 °C 1029.3 hPa SSE 3.2 km/h 6.4 km/h 96 % 0.0 mm
00:47 0.8 °C 0.2 °C 1029.3 hPa Calm   8.0 km/h 96 % 0.0 mm
00:52 0.8 °C 0.2 °C 1029.3 hPa South 6.4 km/h 8.0 km/h 96 % 0.0 mm
00:57 0.8 °C 0.2 °C 1029.3 hPa SSW 1.6 km/h 8.0 km/h 96 % 0.0 mm
01:02 0.7 °C 0.1 °C 1029.3 hPa SSW 3.2 km/h 6.4 km/h 96 % 0.0 mm
01:07 0.7 °C 0.1 °C 1029.3 hPa SSW 3.2 km/h 6.4 km/h 96 % 0.0 mm
01:12 0.6 °C 0.0 °C 1029.3 hPa SSE 4.8 km/h 6.4 km/h 96 % 0.0 mm
01:17 0.5 °C -0.1 °C 1029.3 hPa SSW 3.2 km/h 6.4 km/h 96 % 0.0 mm
01:22 0.5 °C -0.1 °C 1029.3 hPa South 3.2 km/h 6.4 km/h 96 % 0.0 mm
01:27 0.4 °C -0.2 °C 1029.3 hPa South 3.2 km/h 6.4 km/h 96 % 0.0 mm
01:37 0.4 °C -0.2 °C 1029.0 hPa SSW 4.8 km/h 9.7 km/h 96 % 0.0 mm
01:42 0.4 °C -0.2 °C 1029.0 hPa SSE 1.6 km/h 8.0 km/h 96 % 0.0 mm
01:47 0.3 °C -0.3 °C 1029.0 hPa SSE 8.0 km/h 8.0 km/h 96 % 0.0 mm
01:52 0.3 °C -0.3 °C 1028.7 hPa South 6.4 km/h 9.7 km/h 96 % 0.0 mm
02:02 0.2 °C -0.4 °C 1028.7 hPa South 6.4 km/h 9.7 km/h 96 % 0.0 mm
02:12 0.0 °C -0.6 °C 1028.7 hPa SSE 1.6 km/h 9.7 km/h 96 % 0.0 mm
02:17 0.0 °C -0.6 °C 1028.7 hPa SE 3.2 km/h 9.7 km/h 96 % 0.0 mm
02:22 -0.1 °C -0.7 °C 1028.7 hPa SSE 4.8 km/h 9.7 km/h 96 % 0.0 mm
02:27 -0.1 °C -0.7 °C 1028.7 hPa SSE 3.2 km/h 8.0 km/h 96 % 0.0 mm
02:32 -0.1 °C -0.7 °C 1028.7 hPa SSE 1.6 km/h 6.4 km/h 96 % 0.0 mm
02:37 -0.1 °C -0.7 °C 1028.7 hPa South 1.6 km/h 6.4 km/h 96 % 0.0 mm
02:42 -0.1 °C -0.7 °C 1028.7 hPa Calm   6.4 km/h 96 % 0.0 mm
02:47 -0.1 °C -0.7 °C 1028.7 hPa SSE 1.6 km/h 6.4 km/h 96 % 0.0 mm
02:52 -0.2 °C -0.8 °C 1028.7 hPa SSE 3.2 km/h 6.4 km/h 96 % 0.0 mm
02:57 -0.3 °C -0.9 °C 1028.7 hPa SSW 3.2 km/h 8.0 km/h 96 % 0.0 mm
03:02 -0.3 °C -0.9 °C 1028.7 hPa South 1.6 km/h 8.0 km/h 96 % 0.0 mm
03:07 -0.3 °C -0.9 °C 1028.7 hPa Calm   8.0 km/h 96 % 0.0 mm
03:12 -0.3 °C -0.9 °C 1028.7 hPa SSE 1.6 km/h 6.4 km/h 96 % 0.0 mm
03:17 -0.4 °C -1.0 °C 1028.3 hPa Calm   4.8 km/h 96 % 0.0 mm
03:22 -0.4 °C -1.0 °C 1028.3 hPa SSW 4.8 km/h 4.8 km/h 96 % 0.0 mm
03:27 -0.6 °C -1.2 °C 1028.3 hPa SW 3.2 km/h 8.0 km/h 96 % 0.0 mm
03:32 -0.7 °C -1.3 °C 1028.3 hPa SSW 1.6 km/h 8.0 km/h 96 % 0.0 mm
03:42 -0.9 °C -1.5 °C 1028.0 hPa SSE 1.6 km/h 8.0 km/h 96 % 0.0 mm
03:47 -1.0 °C -1.6 °C 1028.0 hPa SSE 1.6 km/h 8.0 km/h 96 % 0.0 mm
03:57 -1.1 °C -1.5 °C 1028.0 hPa Calm   8.0 km/h 97 % 0.0 mm
04:02 -1.1 °C -1.5 °C 1028.0 hPa Calm   8.0 km/h 97 % 0.0 mm
04:07 -1.1 °C -1.5 °C 1028.0 hPa SSE 3.2 km/h 6.4 km/h 97 % 0.0 mm
04:17 -1.0 °C -1.4 °C 1027.7 hPa SSW 3.2 km/h 3.2 km/h 97 % 0.0 mm
04:22 -1.0 °C -1.4 °C 1027.7 hPa SSW 3.2 km/h 4.8 km/h 97 % 0.0 mm
04:27 -1.1 °C -1.5 °C 1027.7 hPa SE 4.8 km/h 4.8 km/h 97 % 0.0 mm
04:32 -1.2 °C -1.6 °C 1027.7 hPa Calm   6.4 km/h 97 % 0.0 mm
04:37 -1.2 °C -1.6 °C 1027.7 hPa SSE 1.6 km/h 9.7 km/h 97 % 0.0 mm
04:47 -1.2 °C -1.6 °C 1027.7 hPa Calm   9.7 km/h 97 % 0.0 mm
04:52 -1.2 °C -1.6 °C 1027.7 hPa SW 4.8 km/h 6.4 km/h 97 % 0.0 mm
05:02 -1.2 °C -1.6 °C 1027.7 hPa SSW 4.8 km/h 8.0 km/h 97 % 0.0 mm
05:07 -1.2 °C -1.6 °C 1027.7 hPa SSW 3.2 km/h 8.0 km/h 97 % 0.0 mm
05:12 -1.2 °C -1.6 °C 1027.7 hPa SW 4.8 km/h 8.0 km/h 97 % 0.0 mm
05:17 -1.2 °C -1.6 °C 1027.7 hPa South 8.0 km/h 14.5 km/h 97 % 0.0 mm
05:22 -1.2 °C -1.6 °C 1027.7 hPa SW 8.0 km/h 14.5 km/h 97 % 0.0 mm
05:32 -1.3 °C -1.7 °C 1027.3 hPa SSW 6.4 km/h 11.3 km/h 97 % 0.0 mm
05:37 -1.4 °C -1.8 °C 1027.3 hPa SSE 9.7 km/h 16.1 km/h 97 % 0.0 mm
05:42 -1.4 °C -1.8 °C 1027.3 hPa SW 9.7 km/h 16.1 km/h 97 % 0.0 mm
05:47 -1.6 °C -2.0 °C 1027.3 hPa SSW 4.8 km/h 17.7 km/h 97 % 0.0 mm
05:52 -1.6 °C -2.0 °C 1027.3 hPa SSW 6.4 km/h 17.7 km/h 97 % 0.0 mm
05:57 -1.6 °C -2.0 °C 1027.3 hPa SSW 3.2 km/h 17.7 km/h 97 % 0.0 mm
06:02 -1.7 °C -2.1 °C 1027.3 hPa SW 6.4 km/h 16.1 km/h 97 % 0.0 mm
06:07 -1.8 °C -2.2 °C 1027.3 hPa SW 12.9 km/h 19.3 km/h 97 % 0.0 mm
06:12 -1.9 °C -2.3 °C 1027.3 hPa SW 8.0 km/h 19.3 km/h 97 % 0.0 mm
06:17 -1.9 °C -2.3 °C 1027.3 hPa SW 14.5 km/h 19.3 km/h 97 % 0.0 mm
06:22 -1.9 °C -2.3 °C 1027.3 hPa SW 14.5 km/h 19.3 km/h 97 % 0.0 mm
06:32 -1.9 °C -2.3 °C 1027.3 hPa SSW 17.7 km/h 19.3 km/h 97 % 0.0 mm
06:37 -1.9 °C -2.3 °C 1027.3 hPa SSW 11.3 km/h 17.7 km/h 97 % 0.0 mm
06:42 -2.0 °C -2.4 °C 1027.0 hPa SW 11.3 km/h 20.9 km/h 97 % 0.0 mm
06:47 -2.1 °C -2.5 °C 1027.0 hPa SW 6.4 km/h 20.9 km/h 97 % 0.0 mm
06:52 -2.0 °C -2.4 °C 1027.0 hPa WSW 9.7 km/h 20.9 km/h 97 % 0.0 mm
07:02 -1.9 °C -2.3 °C 1027.0 hPa SSW 6.4 km/h 14.5 km/h 97 % 0.0 mm
07:07 -1.9 °C -2.3 °C 1027.0 hPa SW 16.1 km/h 16.1 km/h 97 % 0.0 mm
07:12 -2.1 °C -2.5 °C 1027.0 hPa SW 9.7 km/h 17.7 km/h 97 % 0.0 mm
07:17 -2.1 °C -2.5 °C 1027.0 hPa SW 12.9 km/h 17.7 km/h 97 % 0.0 mm
07:22 -2.1 °C -2.5 °C 1027.3 hPa WSW 4.8 km/h 17.7 km/h 97 % 0.0 mm
07:27 -2.1 °C -2.5 °C 1027.0 hPa SSW 9.7 km/h 14.5 km/h 97 % 0.0 mm
07:32 -2.1 °C -2.5 °C 1027.0 hPa SW 9.7 km/h 14.5 km/h 97 % 0.0 mm
07:42 -2.1 °C -2.5 °C 1027.0 hPa SW 6.4 km/h 14.5 km/h 97 % 0.0 mm
07:47 -2.0 °C -2.4 °C 1027.0 hPa SW 4.8 km/h 12.9 km/h 97 % 0.0 mm
07:52 -1.9 °C -2.3 °C 1027.0 hPa SSW 8.0 km/h 11.3 km/h 97 % 0.0 mm
07:57 -1.9 °C -2.3 °C 1027.0 hPa SSW 3.2 km/h 14.5 km/h 97 % 0.0 mm
08:02 -1.9 °C -2.3 °C 1027.0 hPa SSE 6.4 km/h 14.5 km/h 97 % 0.0 mm
08:12 -1.9 °C -2.3 °C 1027.0 hPa SSW 6.4 km/h 14.5 km/h 97 % 0.0 mm
08:22 -2.0 °C -2.4 °C 1027.0 hPa SW 12.9 km/h 16.1 km/h 97 % 0.0 mm
08:27 -2.0 °C -2.4 °C 1027.0 hPa WSW 6.4 km/h 17.7 km/h 97 % 0.0 mm
08:32 -2.1 °C -2.5 °C 1027.0 hPa South 8.0 km/h 17.7 km/h 97 % 0.0 mm
08:42 -2.2 °C -2.6 °C 1027.0 hPa South 4.8 km/h 16.1 km/h 97 % 0.0 mm
08:52 -2.2 °C -2.6 °C 1027.0 hPa SSW 1.6 km/h 12.9 km/h 97 % 0.0 mm
08:57 -2.2 °C -2.6 °C 1027.0 hPa SSW 6.4 km/h 8.0 km/h 97 % 0.0 mm
09:02 -2.1 °C -2.5 °C 1027.0 hPa SSW 8.0 km/h 14.5 km/h 97 % 0.0 mm
09:07 -2.0 °C -2.4 °C 1027.0 hPa SSW 6.4 km/h 14.5 km/h 97 % 0.0 mm
09:12 -1.9 °C -2.3 °C 1026.6 hPa SSW 6.4 km/h 14.5 km/h 97 % 0.0 mm
09:17 -2.0 °C -2.4 °C 1027.0 hPa SSW 6.4 km/h 14.5 km/h 97 % 0.0 mm
09:22 -2.0 °C -2.4 °C 1026.6 hPa SW 8.0 km/h 12.9 km/h 97 % 0.0 mm
09:27 -1.9 °C -2.3 °C 1027.0 hPa SSW 9.7 km/h 12.9 km/h 97 % 0.0 mm
09:32 -1.9 °C -2.3 °C 1026.6 hPa SW 8.0 km/h 12.9 km/h 97 % 0.0 mm
09:42 -1.9 °C -2.3 °C 1026.6 hPa South 8.0 km/h 16.1 km/h 97 % 0.0 mm
09:47 -1.9 °C -2.3 °C 1026.6 hPa SSW 6.4 km/h 16.1 km/h 97 % 0.0 mm
09:52 -1.8 °C -2.2 °C 1026.6 hPa SW 6.4 km/h 12.9 km/h 97 % 0.0 mm
09:57 -1.7 °C -2.1 °C 1026.6 hPa SSW 9.7 km/h 12.9 km/h 97 % 0.0 mm
10:02 -1.7 °C -2.1 °C 1026.6 hPa SSW 9.7 km/h 14.5 km/h 97 % 0.0 mm
10:12 -1.6 °C -2.0 °C 1026.6 hPa SW 8.0 km/h 14.5 km/h 97 % 0.0 mm
10:17 -1.7 °C -2.1 °C 1026.6 hPa SSW 3.2 km/h 12.9 km/h 97 % 0.0 mm
10:22 -1.5 °C -1.9 °C 1026.6 hPa SW 9.7 km/h 14.5 km/h 97 % 0.0 mm
10:27 -1.5 °C -1.9 °C 1026.6 hPa South 9.7 km/h 14.5 km/h 97 % 0.0 mm
10:32 -1.5 °C -1.9 °C 1026.6 hPa SSW 8.0 km/h 14.5 km/h 97 % 0.0 mm
10:37 -1.4 °C -1.8 °C 1026.6 hPa SSW 4.8 km/h 16.1 km/h 97 % 0.0 mm
10:42 -1.4 °C -1.8 °C 1026.6 hPa SSE 1.6 km/h 16.1 km/h 97 % 0.0 mm
10:47 -1.4 °C -1.8 °C 1026.6 hPa SSW 12.9 km/h 16.1 km/h 97 % 0.0 mm
10:52 -1.3 °C -1.7 °C 1026.3 hPa SSW 6.4 km/h 14.5 km/h 97 % 0.0 mm
10:57 -1.2 °C -1.6 °C 1026.3 hPa SSW 8.0 km/h 14.5 km/h 97 % 0.0 mm
11:02 -1.1 °C -1.5 °C 1026.3 hPa SW 12.9 km/h 14.5 km/h 97 % 0.0 mm
11:12 -0.7 °C -1.1 °C 1026.0 hPa SSW 6.4 km/h 14.5 km/h 97 % 0.0 mm
11:17 -0.5 °C -0.9 °C 1026.0 hPa South 3.2 km/h 14.5 km/h 97 % 0.0 mm
11:22 -0.2 °C -0.5 °C 1026.0 hPa South 1.6 km/h 14.5 km/h 98 % 0.0 mm
11:32 0.1 °C -0.2 °C 1026.0 hPa South 1.6 km/h 14.5 km/h 98 % 0.0 mm
11:42 0.4 °C 0.1 °C 1025.6 hPa SSW 9.7 km/h 14.5 km/h 98 % 0.0 mm
11:47 0.5 °C 0.2 °C 1025.3 hPa South 4.8 km/h 14.5 km/h 98 % 0.0 mm
11:52 0.6 °C 0.3 °C 1025.3 hPa SSW 4.8 km/h 14.5 km/h 98 % 0.0 mm
12:02 0.9 °C 0.6 °C 1024.9 hPa SSW 3.2 km/h 14.5 km/h 98 % 0.0 mm
12:07 1.2 °C 0.9 °C 1024.9 hPa SSW 9.7 km/h 16.1 km/h 98 % 0.0 mm
12:12 1.4 °C 1.1 °C 1024.9 hPa SW 12.9 km/h 16.1 km/h 98 % 0.0 mm
12:17 1.7 °C 1.4 °C 1024.9 hPa SSW 8.0 km/h 16.1 km/h 98 % 0.0 mm
12:22 1.9 °C 1.6 °C 1024.9 hPa SW 12.9 km/h 17.7 km/h 98 % 0.0 mm
12:27 2.1 °C 1.8 °C 1024.9 hPa SW 9.7 km/h 20.9 km/h 98 % 0.0 mm
12:37 2.4 °C 2.1 °C 1024.6 hPa SW 17.7 km/h 20.9 km/h 98 % 0.0 mm
12:42 2.6 °C 2.3 °C 1024.6 hPa SSW 19.3 km/h 24.1 km/h 98 % 0.0 mm
12:47 2.8 °C 2.5 °C 1024.3 hPa SSW 16.1 km/h 25.7 km/h 98 % 0.0 mm
12:52 2.9 °C 2.6 °C 1024.3 hPa SSW 12.9 km/h 25.7 km/h 98 % 0.0 mm
12:57 3.1 °C 2.8 °C 1024.3 hPa SSW 17.7 km/h 22.5 km/h 98 % 0.0 mm
13:02 3.3 °C 3.0 °C 1024.3 hPa WSW 16.1 km/h 22.5 km/h 98 % 0.0 mm
13:07 3.6 °C 3.3 °C 1023.9 hPa SSW 9.7 km/h 20.9 km/h 98 % 0.0 mm
13:12 3.9 °C 3.5 °C 1023.9 hPa SSW 9.7 km/h 24.1 km/h 97 % 0.0 mm
13:17 4.2 °C 3.8 °C 1023.6 hPa SW 16.1 km/h 24.1 km/h 97 % 0.0 mm
13:22 4.3 °C 3.6 °C 1023.6 hPa SSW 14.5 km/h 24.1 km/h 95 % 0.0 mm
13:27 4.4 °C 3.5 °C 1023.6 hPa SSW 14.5 km/h 22.5 km/h 94 % 0.0 mm
13:32 4.5 °C 3.5 °C 1023.2 hPa SSW 14.5 km/h 29.0 km/h 93 % 0.0 mm
13:37 4.6 °C 3.4 °C 1023.2 hPa SW 14.5 km/h 29.0 km/h 92 % 0.0 mm
13:42 4.7 °C 3.5 °C 1023.2 hPa SSW 9.7 km/h 25.7 km/h 92 % 0.0 mm
13:52 4.9 °C 3.7 °C 1022.9 hPa South 4.8 km/h 24.1 km/h 92 % 0.0 mm
13:57 5.1 °C 3.9 °C 1022.9 hPa SSW 9.7 km/h 19.3 km/h 92 % 0.0 mm
14:07 5.3 °C 4.0 °C 1022.9 hPa South 8.0 km/h 20.9 km/h 91 % 0.0 mm
14:12 5.4 °C 3.9 °C 1022.9 hPa SSW 9.7 km/h 20.9 km/h 90 % 0.0 mm
14:17 5.5 °C 4.0 °C 1022.6 hPa SSW 12.9 km/h 22.5 km/h 90 % 0.0 mm
14:22 5.5 °C 4.0 °C 1022.6 hPa SSW 14.5 km/h 22.5 km/h 90 % 0.0 mm
14:32 5.7 °C 4.0 °C 1022.2 hPa SW 19.3 km/h 22.5 km/h 89 % 0.0 mm
14:37 5.8 °C 4.1 °C 1022.2 hPa SW 22.5 km/h 22.5 km/h 89 % 0.0 mm
14:42 5.8 °C 4.1 °C 1021.9 hPa SSW 11.3 km/h 27.4 km/h 89 % 0.0 mm
14:47 5.9 °C 4.2 °C 1021.9 hPa SSW 12.9 km/h 27.4 km/h 89 % 0.0 mm
14:57 6.1 °C 4.4 °C 1021.9 hPa South 9.7 km/h 25.7 km/h 89 % 0.0 mm
15:02 6.2 °C 4.5 °C 1021.6 hPa South 12.9 km/h 22.5 km/h 89 % 0.0 mm
15:12 6.3 °C 4.5 °C 1021.6 hPa South 12.9 km/h 17.7 km/h 88 % 0.0 mm
15:17 6.3 °C 4.5 °C 1021.6 hPa SSW 14.5 km/h 20.9 km/h 88 % 0.0 mm
15:22 6.4 °C 4.6 °C 1021.2 hPa South 8.0 km/h 20.9 km/h 88 % 0.0 mm
15:27 6.4 °C 4.6 °C 1021.2 hPa SSW 12.9 km/h 20.9 km/h 88 % 0.0 mm
15:32 6.4 °C 4.6 °C 1021.2 hPa SSW 11.3 km/h 20.9 km/h 88 % 0.0 mm
15:37 6.5 °C 4.5 °C 1021.2 hPa SSW 9.7 km/h 20.9 km/h 87 % 0.0 mm
15:47 6.6 °C 4.6 °C 1020.9 hPa SSW 8.0 km/h 22.5 km/h 87 % 0.0 mm
15:52 6.6 °C 4.6 °C 1020.9 hPa SSW 8.0 km/h 22.5 km/h 87 % 0.0 mm
15:57 6.6 °C 4.6 °C 1020.9 hPa SSW 17.7 km/h 22.5 km/h 87 % 0.0 mm
16:02 6.7 °C 4.7 °C 1020.5 hPa SW 8.0 km/h 22.5 km/h 87 % 0.0 mm
16:37 6.7 °C 4.7 °C 1020.2 hPa SSW 8.0 km/h 14.5 km/h 87 % 0.0 mm
16:42 6.7 °C 4.7 °C 1020.2 hPa SSW 9.7 km/h 14.5 km/h 87 % 0.0 mm
16:47 6.7 °C 4.7 °C 1020.2 hPa SSW 12.9 km/h 14.5 km/h 87 % 0.0 mm
16:57 6.8 °C 4.6 °C 1019.9 hPa SSW 12.9 km/h 14.5 km/h 86 % 0.0 mm
17:07 6.8 °C 4.6 °C 1019.9 hPa SSW 9.7 km/h 16.1 km/h 86 % 0.0 mm
17:12 6.8 °C 4.6 °C 1019.9 hPa SSW 12.9 km/h 16.1 km/h 86 % 0.0 mm
17:27 6.8 °C 4.8 °C 1019.5 hPa SW 12.9 km/h 17.7 km/h 87 % 0.0 mm
17:32 6.8 °C 4.6 °C 1019.5 hPa SSW 9.7 km/h 17.7 km/h 86 % 0.0 mm
17:52 6.8 °C 4.8 °C 1019.5 hPa SSW 11.3 km/h 19.3 km/h 87 % 0.0 mm
17:57 6.7 °C 4.7 °C 1019.5 hPa SSW 11.3 km/h 19.3 km/h 87 % 0.0 mm
18:02 6.6 °C 4.8 °C 1019.2 hPa SW 9.7 km/h 17.7 km/h 88 % 0.3 mm
18:12 6.4 °C 4.7 °C 1019.2 hPa SW 9.7 km/h 19.3 km/h 89 % 0.5 mm
18:17 6.4 °C 4.9 °C 1019.2 hPa SW 8.0 km/h 19.3 km/h 90 % 0.5 mm
18:22 6.4 °C 4.9 °C 1019.2 hPa SSW 11.3 km/h 19.3 km/h 90 % 0.5 mm
18:32 6.6 °C 4.9 °C 1018.8 hPa SSW 11.3 km/h 19.3 km/h 89 % 0.8 mm
18:42 6.4 °C 4.9 °C 1018.8 hPa SSW 6.4 km/h 16.1 km/h 90 % 1.0 mm
18:47 6.4 °C 4.9 °C 1018.8 hPa SSW 11.3 km/h 16.1 km/h 90 % 1.0 mm
18:52 6.4 °C 4.9 °C 1018.8 hPa SW 11.3 km/h 16.1 km/h 90 % 1.3 mm
18:57 6.4 °C 4.9 °C 1018.8 hPa SW 16.1 km/h 19.3 km/h 90 % 1.5 mm
19:02 6.4 °C 4.9 °C 1018.5 hPa SSW 14.5 km/h 20.9 km/h 90 % 1.3 mm
19:17 6.5 °C 4.8 °C 1018.2 hPa SW 17.7 km/h 24.1 km/h 89 % 1.5 mm
19:22 6.5 °C 4.8 °C 1018.5 hPa SSW 20.9 km/h 27.4 km/h 89 % 1.5 mm
19:27 6.6 °C 4.9 °C 1018.2 hPa SSW 12.9 km/h 29.0 km/h 89 % 1.8 mm
19:37 6.7 °C 4.9 °C 1018.2 hPa SW 22.5 km/h 32.2 km/h 88 % 2.0 mm
19:52 6.5 °C 5.0 °C 1018.2 hPa SW 27.4 km/h 35.4 km/h 90 % 2.0 mm
19:57 6.4 °C 5.0 °C 1018.2 hPa SW 19.3 km/h 37.0 km/h 91 % 2.0 mm
20:02 6.4 °C 5.2 °C 1018.2 hPa SW 19.3 km/h 37.0 km/h 92 % 2.0 mm
20:07 6.3 °C 5.3 °C 1018.2 hPa WSW 24.1 km/h 37.0 km/h 93 % 1.8 mm
20:17 6.3 °C 5.3 °C 1017.8 hPa SW 25.7 km/h 37.0 km/h 93 % 2.3 mm
20:22 6.2 °C 5.2 °C 1017.8 hPa SSW 19.3 km/h 37.0 km/h 93 % 2.3 mm
20:27 6.2 °C 5.3 °C 1017.8 hPa SW 17.7 km/h 32.2 km/h 94 % 2.3 mm
20:32 6.1 °C 5.2 °C 1017.8 hPa SW 17.7 km/h 32.2 km/h 94 % 2.3 mm
20:42 6.1 °C 5.4 °C 1017.8 hPa SSW 24.1 km/h 32.2 km/h 95 % 2.3 mm
20:52 6.1 °C 5.5 °C 1017.8 hPa SW 22.5 km/h 32.2 km/h 96 % 2.0 mm
21:02 6.1 °C 5.5 °C 1017.8 hPa SW 19.3 km/h 35.4 km/h 96 % 2.0 mm
21:17 6.2 °C 5.6 °C 1017.5 hPa WSW 24.1 km/h 33.8 km/h 96 % 1.8 mm
21:22 6.2 °C 5.6 °C 1017.5 hPa SW 17.7 km/h 33.8 km/h 96 % 1.5 mm
21:37 6.2 °C 5.6 °C 1017.5 hPa SW 22.5 km/h 32.2 km/h 96 % 1.5 mm
21:42 6.2 °C 5.6 °C 1017.5 hPa SSW 16.1 km/h 32.2 km/h 96 % 1.5 mm
21:47 6.2 °C 5.6 °C 1017.5 hPa SW 17.7 km/h 32.2 km/h 96 % 1.8 mm
21:52 6.2 °C 5.6 °C 1017.2 hPa SW 19.3 km/h 29.0 km/h 96 % 1.5 mm
22:07 6.3 °C 5.9 °C 1017.2 hPa SW 17.7 km/h 30.6 km/h 97 % 1.3 mm
22:12 6.3 °C 5.9 °C 1017.2 hPa WSW 27.4 km/h 32.2 km/h 97 % 1.3 mm
22:17 6.3 °C 5.9 °C 1016.8 hPa WSW 17.7 km/h 32.2 km/h 97 % 1.0 mm
22:22 6.3 °C 5.9 °C 1016.8 hPa SW 12.9 km/h 32.2 km/h 97 % 0.8 mm
22:42 6.3 °C 5.9 °C 1016.5 hPa WSW 20.9 km/h 30.6 km/h 97 % 0.5 mm
22:47 6.3 °C 5.9 °C 1016.1 hPa WSW 19.3 km/h 30.6 km/h 97 % 0.3 mm
22:57 6.4 °C 6.0 °C 1016.8 hPa SW 16.1 km/h 30.6 km/h 97 % 0.3 mm
23:02 6.5 °C 6.1 °C 1016.5 hPa SW 20.9 km/h 30.6 km/h 97 % 0.5 mm
23:07 6.5 °C 6.1 °C 1016.5 hPa SW 22.5 km/h 30.6 km/h 97 % 0.5 mm
23:12 6.5 °C 6.1 °C 1016.8 hPa SW 14.5 km/h 27.4 km/h 97 % 0.5 mm
23:17 6.5 °C 6.1 °C 1016.5 hPa SW 14.5 km/h 29.0 km/h 97 % 0.5 mm
23:22 6.6 °C 6.2 °C 1016.5 hPa WSW 19.3 km/h 29.0 km/h 97 % 0.5 mm
23:32 6.6 °C 6.2 °C 1016.8 hPa SW 6.4 km/h 24.1 km/h 97 % 0.5 mm
23:37 6.7 °C 6.3 °C 1016.8 hPa WSW 14.5 km/h 22.5 km/h 97 % 0.3 mm
23:42 6.7 °C 6.3 °C 1017.2 hPa West 6.4 km/h 20.9 km/h 97 % 0.3 mm
23:47 6.8 °C 6.4 °C 1017.2 hPa SW 4.8 km/h 19.3 km/h 97 % 0.5 mm
23:57 6.9 °C 6.5 °C 1017.2 hPa WSW 9.7 km/h 16.1 km/h 97 % 0.5 mm
Meteo18
Compliments of Weather Underground - 4 mb

Script developed by  Jim McMurry - jmcmurry@mwt.net Adapted for the template by  Wim van der Kuil - Leuven-Template.eu

You find our weather info also at:

European Weather Network

Weather Underground

Equipment we use:

Weather-station
Davis Vue

Weather-program
Meteohub

Weather-server
Raspberry PI 2 B+

Provider
1 and 1

Davis Vue

Meteohub

Raspberry PI 2 B+

1 and 1